createdAt,value
2023-01-07T00:01:48.487Z,1.00
2023-01-07T00:04:15.717Z,1.00
2023-01-07T00:06:44.272Z,1.00
2023-01-07T00:09:12.898Z,1.00
2023-01-07T00:11:40.454Z,1.00
2023-01-07T00:14:08.279Z,1.00
2023-01-07T00:16:35.406Z,1.00
2023-01-07T00:19:03.589Z,1.00
2023-01-07T00:21:30.311Z,1.00
2023-01-07T00:24:04.539Z,1.00
2023-01-07T00:26:33.266Z,1.00
2023-01-07T00:29:00.234Z,1.00
2023-01-07T00:31:28.669Z,1.00
2023-01-07T00:33:55.506Z,1.00
2023-01-07T00:36:23.702Z,1.00
2023-01-07T00:38:58.154Z,1.00
2023-01-07T00:41:24.846Z,1.00
2023-01-07T00:43:51.505Z,1.00
2023-01-07T00:46:18.199Z,1.00
2023-01-07T00:48:45.044Z,1.00
2023-01-07T00:51:12.626Z,1.00
2023-01-07T00:53:39.314Z,1.00
2023-01-07T00:56:06.015Z,1.00
2023-01-07T00:58:32.631Z,1.00
2023-01-07T01:01:00.247Z,1.00
2023-01-07T01:03:27.607Z,1.00
2023-01-07T01:05:54.256Z,1.00
2023-01-07T01:08:21.295Z,1.00
2023-01-07T01:10:47.981Z,1.00
2023-01-07T01:13:18.206Z,1.00
2023-01-07T01:15:45.878Z,1.00
2023-01-07T01:18:12.648Z,1.00
2023-01-07T01:20:39.316Z,1.00
2023-01-07T01:23:06.068Z,1.00
2023-01-07T01:25:32.848Z,1.00
2023-01-07T01:27:59.487Z,1.00
2023-01-07T01:30:26.087Z,1.00
2023-01-07T01:32:53.143Z,1.00
2023-01-07T01:35:19.761Z,99.90
2023-01-07T01:37:46.383Z,99.90
2023-01-07T01:40:13.254Z,99.90
2023-01-07T01:42:39.888Z,99.90
2023-01-07T01:45:07.207Z,99.90
2023-01-07T01:47:43.103Z,99.90
2023-01-07T01:50:24.623Z,99.90
2023-01-07T01:52:57.902Z,99.90
2023-01-07T01:55:27.949Z,99.90
2023-01-07T01:57:57.124Z,99.90
2023-01-07T02:00:23.739Z,99.90
2023-01-07T02:02:52.936Z,99.90
2023-01-07T02:05:19.562Z,99.90
2023-01-07T02:07:46.364Z,1.00
2023-01-07T02:10:18.306Z,1.00
2023-01-07T02:12:47.659Z,1.00
2023-01-07T02:15:27.195Z,1.00
2023-01-07T02:18:10.411Z,1.00
2023-01-07T02:21:03.119Z,1.00
2023-01-07T02:24:02.021Z,1.00
2023-01-07T02:26:43.598Z,1.00
2023-01-07T02:29:12.960Z,1.00
2023-01-07T02:32:03.282Z,1.00
2023-01-07T02:34:42.854Z,1.00
2023-01-07T02:37:38.401Z,1.00
2023-01-07T02:40:13.208Z,1.00
2023-01-07T02:43:07.659Z,1.00
2023-01-07T02:45:39.558Z,1.00
2023-01-07T02:48:08.533Z,1.00
2023-01-07T02:50:35.248Z,1.00
2023-01-07T02:53:01.879Z,1.00
2023-01-07T02:55:49.197Z,1.00
2023-01-07T02:58:28.165Z,1.00
2023-01-07T03:01:25.677Z,1.00
2023-01-07T03:04:28.308Z,1.00
2023-01-07T03:07:15.456Z,1.00
2023-01-07T03:10:05.883Z,1.00
2023-01-07T03:13:05.999Z,1.00
2023-01-07T03:15:37.272Z,1.00
2023-01-07T03:18:11.465Z,1.00
2023-01-07T03:20:39.099Z,99.90
2023-01-07T03:23:06.711Z,99.90
2023-01-07T03:25:34.549Z,99.90
2023-01-07T03:28:01.177Z,99.90
2023-01-07T03:30:27.802Z,99.90
2023-01-07T03:33:07.214Z,99.90
2023-01-07T03:35:33.982Z,99.90
2023-01-07T03:38:01.080Z,99.90
2023-01-07T03:40:27.707Z,99.90
2023-01-07T03:42:54.583Z,99.90
2023-01-07T03:45:24.036Z,99.90
2023-01-07T03:47:52.562Z,99.90
2023-01-07T03:50:19.316Z,99.90
2023-01-07T03:52:46.199Z,99.90
2023-01-07T03:55:12.833Z,99.90
2023-01-07T03:57:39.480Z,99.90
2023-01-07T04:00:07.065Z,99.90
2023-01-07T04:02:33.696Z,99.90
2023-01-07T04:05:00.516Z,99.90
2023-01-07T04:07:27.317Z,99.90
2023-01-07T04:09:54.139Z,99.90
2023-01-07T04:12:20.774Z,99.90
2023-01-07T04:14:47.585Z,99.90
2023-01-07T04:17:14.390Z,76.80
2023-01-07T04:19:41.052Z,93.00
2023-01-07T04:22:09.251Z,84.90
2023-01-07T04:24:36.055Z,81.90
2023-01-07T04:27:02.717Z,46.80
2023-01-07T04:29:29.565Z,29.20
2023-01-07T04:31:56.385Z,5.70
2023-01-07T04:34:23.180Z,1.00
2023-01-07T04:36:49.880Z,1.00
2023-01-07T04:39:18.012Z,6.20
2023-01-07T04:41:44.719Z,1.00
2023-01-07T04:44:11.445Z,2.90
2023-01-07T04:46:38.280Z,1.00
2023-01-07T04:49:04.915Z,1.00
2023-01-07T04:51:31.560Z,1.00
2023-01-07T04:53:58.407Z,1.00
2023-01-07T04:56:25.061Z,1.00
2023-01-07T04:58:51.740Z,1.00
2023-01-07T05:01:18.563Z,1.00
2023-01-07T05:03:45.279Z,1.00
2023-01-07T05:06:11.956Z,1.00
2023-01-07T05:08:38.640Z,1.00
2023-01-07T05:11:05.398Z,1.00
2023-01-07T05:13:32.072Z,1.00
2023-01-07T05:15:58.754Z,1.00
2023-01-07T05:18:25.365Z,1.00
2023-01-07T05:20:51.972Z,1.00
2023-01-07T05:23:18.620Z,1.00
2023-01-07T05:25:45.442Z,1.00
2023-01-07T05:28:12.214Z,1.00
2023-01-07T05:30:39.490Z,1.00
2023-01-07T05:33:07.306Z,1.00
2023-01-07T05:35:34.931Z,1.00
2023-01-07T05:38:01.569Z,1.00
2023-01-07T05:40:28.199Z,1.00
2023-01-07T05:42:54.811Z,1.00
2023-01-07T05:45:21.893Z,1.00
2023-01-07T05:47:48.743Z,1.00
2023-01-07T05:50:15.583Z,1.00
2023-01-07T05:52:42.424Z,1.00
2023-01-07T05:55:09.351Z,1.00
2023-01-07T05:57:36.155Z,1.00
2023-01-07T06:00:03.322Z,1.00
2023-01-07T06:02:29.918Z,1.00
2023-01-07T06:04:56.560Z,1.00
2023-01-07T06:07:23.217Z,1.00
2023-01-07T06:09:49.825Z,1.00
2023-01-07T06:12:16.433Z,1.00
2023-01-07T06:14:43.096Z,1.00
2023-01-07T06:17:09.719Z,1.00
2023-01-07T06:19:36.325Z,1.00
2023-01-07T06:22:02.962Z,1.00
2023-01-07T06:24:29.607Z,1.00
2023-01-07T06:26:56.248Z,1.00
2023-01-07T06:29:22.887Z,1.00
2023-01-07T06:31:49.478Z,1.00
2023-01-07T06:34:16.119Z,99.90
2023-01-07T06:36:42.731Z,99.90
2023-01-07T06:39:09.393Z,99.90
2023-01-07T06:41:36.011Z,99.90
2023-01-07T06:44:02.714Z,99.90
2023-01-07T06:46:29.488Z,99.90
2023-01-07T06:48:56.168Z,99.90
2023-01-07T06:51:22.877Z,99.90
2023-01-07T06:53:49.470Z,99.90
2023-01-07T06:56:16.081Z,99.90
2023-01-07T06:58:42.698Z,99.90
2023-01-07T07:01:09.759Z,99.90
2023-01-07T07:03:36.503Z,99.90
2023-01-07T07:06:03.219Z,99.90
2023-01-07T07:08:29.887Z,99.90
2023-01-07T07:10:56.505Z,99.90
2023-01-07T07:13:23.167Z,99.90
2023-01-07T07:15:49.961Z,99.90
2023-01-07T07:18:17.556Z,99.90
2023-01-07T07:20:46.022Z,99.90
2023-01-07T07:23:12.678Z,99.90
2023-01-07T07:25:39.308Z,99.90
2023-01-07T07:28:05.950Z,99.90
2023-01-07T07:30:46.319Z,99.90
2023-01-07T07:33:15.043Z,99.90
2023-01-07T07:35:41.984Z,99.90
2023-01-07T07:38:08.624Z,99.90
2023-01-07T07:40:35.251Z,99.90
2023-01-07T07:43:10.604Z,99.90
2023-01-07T07:45:39.673Z,99.90
2023-01-07T07:48:07.482Z,99.90
2023-01-07T07:50:34.375Z,99.90
2023-01-07T07:53:00.991Z,90.30
2023-01-07T07:55:27.623Z,68.90
2023-01-07T07:57:58.267Z,26.50
2023-01-07T08:00:25.252Z,7.00
2023-01-07T08:02:52.106Z,1.00
2023-01-07T08:05:18.834Z,1.00
2023-01-07T08:07:45.658Z,1.00
2023-01-07T08:10:12.327Z,1.00
2023-01-07T08:12:39.275Z,1.00
2023-01-07T08:15:06.502Z,1.00
2023-01-07T08:17:33.134Z,1.00
2023-01-07T08:19:59.795Z,1.00
2023-01-07T08:22:26.483Z,1.00
2023-01-07T08:24:53.208Z,1.00
2023-01-07T08:27:22.837Z,1.00
2023-01-07T08:29:49.526Z,1.00
2023-01-07T08:32:16.167Z,1.00
2023-01-07T08:34:42.775Z,1.00
2023-01-07T08:37:09.397Z,1.00
2023-01-07T08:39:36.099Z,1.00
2023-01-07T08:42:02.785Z,1.00
2023-01-07T08:44:29.405Z,1.00
2023-01-07T08:46:56.091Z,1.00
2023-01-07T08:49:23.232Z,1.00
2023-01-07T08:51:50.071Z,1.00
2023-01-07T08:54:16.855Z,1.00
2023-01-07T08:56:43.714Z,1.00
2023-01-07T08:59:10.588Z,1.00
2023-01-07T09:01:37.364Z,1.00
2023-01-07T09:04:06.958Z,1.00
2023-01-07T09:06:33.614Z,1.00
2023-01-07T09:09:00.208Z,1.00
2023-01-07T09:11:26.881Z,1.00
2023-01-07T09:13:53.501Z,1.00
2023-01-07T09:16:20.386Z,1.00
2023-01-07T09:18:47.053Z,1.00
2023-01-07T09:21:13.715Z,1.00
2023-01-07T09:23:40.585Z,1.00
2023-01-07T09:26:07.570Z,1.00
2023-01-07T09:28:34.165Z,1.00
2023-01-07T09:31:00.897Z,1.00
2023-01-07T09:33:27.544Z,1.00
2023-01-07T09:35:54.177Z,1.00
2023-01-07T09:38:20.783Z,1.00
2023-01-07T09:40:47.437Z,1.00
2023-01-07T09:43:59.540Z,1.00
2023-01-07T09:46:18.271Z,1.00
2023-01-07T09:48:47.194Z,1.00
2023-01-07T09:51:28.215Z,99.90
2023-01-07T09:53:57.153Z,99.90
2023-01-07T09:56:27.874Z,99.90
2023-01-07T09:58:54.957Z,99.90
2023-01-07T10:01:40.383Z,99.90
2023-01-07T10:04:22.150Z,99.90
2023-01-07T10:06:57.068Z,99.90
2023-01-07T10:09:33.636Z,99.90
2023-01-07T10:12:03.110Z,99.90
2023-01-07T10:14:35.938Z,99.90
2023-01-07T10:17:11.066Z,99.90
2023-01-07T10:19:57.667Z,99.90
2023-01-07T10:22:40.123Z,99.90
2023-01-07T10:25:15.141Z,75.30
2023-01-07T10:27:42.598Z,6.30
2023-01-07T10:30:25.777Z,1.00
2023-01-07T10:33:16.430Z,1.00
2023-01-07T10:35:43.082Z,1.00
2023-01-07T10:38:18.771Z,1.00
2023-01-07T10:40:57.009Z,1.00
2023-01-07T10:43:38.702Z,18.20
2023-01-07T10:46:37.003Z,1.60
2023-01-07T10:49:16.147Z,50.30
2023-01-07T10:52:01.976Z,41.90
2023-01-07T10:54:41.474Z,31.80
2023-01-07T10:57:16.693Z,9.70
2023-01-07T10:59:49.537Z,1.00
2023-01-07T11:02:21.655Z,1.00
2023-01-07T11:04:48.400Z,1.00
2023-01-07T11:07:29.191Z,1.00
2023-01-07T11:09:55.820Z,1.00
2023-01-07T11:12:42.010Z,1.00
2023-01-07T11:15:22.683Z,1.00
2023-01-07T11:17:55.578Z,1.00
2023-01-07T11:20:41.748Z,1.00
2023-01-07T11:23:30.221Z,1.00
2023-01-07T11:26:25.190Z,1.00
2023-01-07T11:28:55.862Z,1.00
2023-01-07T11:31:24.084Z,1.00
2023-01-07T11:34:02.304Z,1.00
2023-01-07T11:36:43.404Z,1.00
2023-01-07T11:39:22.754Z,1.00
2023-01-07T11:42:34.627Z,1.00
2023-01-07T11:45:19.395Z,1.00
2023-01-07T11:47:47.976Z,1.00
2023-01-07T11:50:34.864Z,1.00
2023-01-07T11:53:14.943Z,1.00
2023-01-07T11:55:55.295Z,1.00
2023-01-07T11:58:28.410Z,1.00
2023-01-07T12:01:03.794Z,1.00
2023-01-07T12:03:30.743Z,1.00
2023-01-07T12:05:58.557Z,1.00
2023-01-07T12:08:27.223Z,1.00
2023-01-07T12:10:55.459Z,1.00
2023-01-07T12:13:25.590Z,1.00
2023-01-07T12:16:03.182Z,1.00
2023-01-07T12:19:08.119Z,1.00
2023-01-07T12:22:16.540Z,1.00
2023-01-07T12:25:05.614Z,1.00
2023-01-07T12:27:39.231Z,1.00
2023-01-07T12:30:37.075Z,1.00
2023-01-07T12:33:18.297Z,1.00
2023-01-07T12:35:48.081Z,1.00
2023-01-07T12:38:46.372Z,1.00
2023-01-07T12:41:22.760Z,1.00
2023-01-07T12:44:00.157Z,1.00
2023-01-07T12:46:28.146Z,1.00
2023-01-07T12:49:04.965Z,1.00
2023-01-07T12:51:39.000Z,1.00
2023-01-07T12:54:11.864Z,1.00
2023-01-07T12:56:58.526Z,1.00
2023-01-07T12:59:46.937Z,1.00
2023-01-07T13:02:37.571Z,1.00
2023-01-07T13:05:16.446Z,1.00
2023-01-07T13:08:19.891Z,1.00
2023-01-07T13:10:58.748Z,1.00
2023-01-07T13:13:37.906Z,1.00
2023-01-07T13:16:05.701Z,1.00
2023-01-07T13:18:32.802Z,1.00
2023-01-07T13:21:07.879Z,1.00
2023-01-07T13:23:47.752Z,1.00
2023-01-07T13:26:46.640Z,1.00
2023-01-07T13:29:29.258Z,1.00
2023-01-07T13:32:20.435Z,1.00
2023-01-07T13:35:21.149Z,1.00
2023-01-07T13:38:13.180Z,1.00
2023-01-07T13:41:07.439Z,1.00
2023-01-07T13:43:54.038Z,1.00
2023-01-07T13:46:22.674Z,1.00
2023-01-07T13:48:53.258Z,1.00
2023-01-07T13:51:40.270Z,1.00
2023-01-07T13:54:11.727Z,1.00
2023-01-07T13:56:39.881Z,1.00
2023-01-07T13:59:30.549Z,1.00
2023-01-07T14:02:14.963Z,1.00
2023-01-07T14:05:06.892Z,1.00
2023-01-07T14:07:44.860Z,1.00
2023-01-07T14:10:38.142Z,1.00
2023-01-07T14:13:13.822Z,1.00
2023-01-07T14:15:48.860Z,1.00
2023-01-07T14:18:46.241Z,1.00
2023-01-07T14:21:21.343Z,1.00
2023-01-07T14:24:29.945Z,1.00
2023-01-07T14:27:11.391Z,1.00
2023-01-07T14:29:54.285Z,1.00
2023-01-07T14:32:32.218Z,1.00
2023-01-07T14:35:03.383Z,1.00
2023-01-07T14:37:40.778Z,1.00
2023-01-07T14:40:42.896Z,1.00
2023-01-07T14:43:51.508Z,1.00
2023-01-07T14:46:24.462Z,1.00
2023-01-07T14:49:03.855Z,1.00
2023-01-07T14:51:48.147Z,1.00
2023-01-07T14:54:32.988Z,1.00
2023-01-07T14:57:40.524Z,1.00
2023-01-07T15:00:25.717Z,1.00
2023-01-07T15:03:09.837Z,1.00
2023-01-07T15:05:51.851Z,1.00
2023-01-07T15:08:39.683Z,1.00
2023-01-07T15:11:30.497Z,1.00
2023-01-07T15:14:22.747Z,1.00
2023-01-07T15:16:50.193Z,1.00
2023-01-07T15:19:17.335Z,1.00
2023-01-07T15:21:55.873Z,1.00
2023-01-07T15:24:42.791Z,1.00
2023-01-07T15:27:21.728Z,1.00
2023-01-07T15:30:11.950Z,1.00
2023-01-07T15:33:09.671Z,1.00
2023-01-07T15:35:43.097Z,1.00
2023-01-07T15:38:38.476Z,1.00
2023-01-07T15:41:05.249Z,1.00
2023-01-07T15:43:31.962Z,1.00
2023-01-07T15:46:06.527Z,1.00
2023-01-07T15:48:33.329Z,1.00
2023-01-07T15:51:02.626Z,1.00
2023-01-07T15:53:29.846Z,1.00
2023-01-07T15:55:59.521Z,1.00
2023-01-07T15:58:30.511Z,1.00
2023-01-07T16:00:57.893Z,1.00
2023-01-07T16:03:24.769Z,1.00
2023-01-07T16:05:53.469Z,1.00
2023-01-07T16:08:29.945Z,1.00
2023-01-07T16:11:01.152Z,1.00
2023-01-07T16:13:31.678Z,1.00
2023-01-07T16:16:03.000Z,1.00
2023-01-07T16:18:32.386Z,1.00
2023-01-07T16:21:00.213Z,1.00
2023-01-07T16:23:28.461Z,1.00
2023-01-07T16:26:02.778Z,1.00
2023-01-07T16:28:32.963Z,1.00
2023-01-07T16:30:59.973Z,1.00
2023-01-07T16:33:29.828Z,1.00
2023-01-07T16:35:58.311Z,1.00
2023-01-07T16:38:25.049Z,1.00
2023-01-07T16:40:51.757Z,1.00
2023-01-07T16:43:40.538Z,1.00
2023-01-07T16:46:30.198Z,1.00
2023-01-07T16:49:20.960Z,1.00
2023-01-07T16:51:50.110Z,1.00
2023-01-07T16:54:23.384Z,1.00
2023-01-07T16:57:19.904Z,1.00
2023-01-07T16:59:53.784Z,1.00
2023-01-07T17:02:29.776Z,1.00
2023-01-07T17:05:09.919Z,1.00
2023-01-07T17:07:36.521Z,1.00
2023-01-07T17:10:03.469Z,1.00
2023-01-07T17:12:37.342Z,1.00
2023-01-07T17:15:37.903Z,1.00
2023-01-07T17:18:16.471Z,1.00
2023-01-07T17:20:51.242Z,1.00
2023-01-07T17:23:27.063Z,1.00
2023-01-07T17:26:04.665Z,1.00
2023-01-07T17:28:33.336Z,1.00
2023-01-07T17:31:00.428Z,1.00
2023-01-07T17:33:27.252Z,1.00
2023-01-07T17:35:54.316Z,1.00
2023-01-07T17:38:21.100Z,1.00
2023-01-07T17:40:48.072Z,1.00
2023-01-07T17:43:34.276Z,1.00
2023-01-07T17:46:05.561Z,1.00
2023-01-07T17:48:32.542Z,1.00
2023-01-07T17:51:00.609Z,1.00
2023-01-07T17:53:30.732Z,1.00
2023-01-07T17:55:57.425Z,1.00
2023-01-07T17:58:28.923Z,1.00
2023-01-07T18:00:56.557Z,1.00
2023-01-07T18:03:23.666Z,1.00
2023-01-07T18:05:50.387Z,1.00
2023-01-07T18:08:17.004Z,1.00
2023-01-07T18:11:02.591Z,1.00
2023-01-07T18:13:29.927Z,1.00
2023-01-07T18:16:00.377Z,1.00
2023-01-07T18:18:28.771Z,1.00
2023-01-07T18:20:56.676Z,1.00
2023-01-07T18:23:23.907Z,1.00
2023-01-07T18:25:50.972Z,1.00
2023-01-07T18:28:17.721Z,1.00
2023-01-07T18:30:44.362Z,1.00
2023-01-07T18:33:11.347Z,1.00
2023-01-07T18:35:40.517Z,1.00
2023-01-07T18:38:12.655Z,1.00
2023-01-07T18:40:39.333Z,1.00
2023-01-07T18:43:06.316Z,1.00
2023-01-07T18:45:33.185Z,1.00
2023-01-07T18:48:00.371Z,1.00
2023-01-07T18:50:27.039Z,1.00
2023-01-07T18:52:53.715Z,1.00
2023-01-07T18:55:21.829Z,1.00
2023-01-07T18:57:48.447Z,1.00
2023-01-07T19:00:15.568Z,1.00
2023-01-07T19:02:42.175Z,1.00
2023-01-07T19:05:08.958Z,1.00
2023-01-07T19:07:36.091Z,1.00
2023-01-07T19:10:04.783Z,1.00
2023-01-07T19:12:31.457Z,1.00
2023-01-07T19:14:58.102Z,1.00
2023-01-07T19:17:24.743Z,1.00
2023-01-07T19:19:52.120Z,1.00
2023-01-07T19:22:22.155Z,1.00
2023-01-07T19:24:49.155Z,1.00
2023-01-07T19:27:15.820Z,1.00
2023-01-07T19:29:42.445Z,1.00
2023-01-07T19:32:09.108Z,1.00
2023-01-07T19:34:35.959Z,1.00
2023-01-07T19:37:02.574Z,1.00
2023-01-07T19:39:29.750Z,1.00
2023-01-07T19:41:56.387Z,1.00
2023-01-07T19:44:23.557Z,1.00
2023-01-07T19:46:50.156Z,1.00
2023-01-07T19:49:16.821Z,1.00
2023-01-07T19:51:43.587Z,1.00
2023-01-07T19:54:15.237Z,1.00
2023-01-07T19:56:43.527Z,1.00
2023-01-07T19:59:10.752Z,1.00
2023-01-07T20:01:38.943Z,1.00
2023-01-07T20:04:06.782Z,1.00
2023-01-07T20:06:35.427Z,1.00
2023-01-07T20:09:07.828Z,1.00
2023-01-07T20:11:37.513Z,1.00
2023-01-07T20:14:04.443Z,1.00
2023-01-07T20:16:31.178Z,1.00
2023-01-07T20:18:57.841Z,1.00
2023-01-07T20:21:28.200Z,1.00
2023-01-07T20:23:54.852Z,1.00
2023-01-07T20:26:32.158Z,1.00
2023-01-07T20:28:58.871Z,1.00
2023-01-07T20:31:26.332Z,1.00
2023-01-07T20:33:55.826Z,1.00
2023-01-07T20:36:24.080Z,1.00
2023-01-07T20:38:51.024Z,1.00
2023-01-07T20:41:20.941Z,1.00
2023-01-07T20:43:54.681Z,1.00
2023-01-07T20:46:21.412Z,1.00
2023-01-07T20:48:48.813Z,1.00
2023-01-07T20:51:15.565Z,1.00
2023-01-07T20:53:42.361Z,1.00
2023-01-07T20:56:09.521Z,1.00
2023-01-07T20:58:36.636Z,1.00
2023-01-07T21:01:11.615Z,1.00
2023-01-07T21:03:38.966Z,1.00
2023-01-07T21:06:08.807Z,1.00
2023-01-07T21:08:36.569Z,1.00
2023-01-07T21:11:03.250Z,1.00
2023-01-07T21:13:29.904Z,1.00
2023-01-07T21:16:01.994Z,1.00
2023-01-07T21:18:28.692Z,1.00
2023-01-07T21:20:55.321Z,1.00
2023-01-07T21:23:21.910Z,1.00
2023-01-07T21:25:48.838Z,1.00
2023-01-07T21:28:15.492Z,1.00
2023-01-07T21:30:42.511Z,1.00
2023-01-07T21:33:09.368Z,1.00
2023-01-07T21:35:40.592Z,1.00
2023-01-07T21:38:07.212Z,1.00
2023-01-07T21:40:33.983Z,1.00
2023-01-07T21:43:00.656Z,1.00
2023-01-07T21:45:27.285Z,1.00
2023-01-07T21:47:53.894Z,1.00
2023-01-07T21:50:20.538Z,1.00
2023-01-07T21:52:47.238Z,1.00
2023-01-07T21:55:14.072Z,1.00
2023-01-07T21:57:40.699Z,1.00
2023-01-07T22:00:07.824Z,1.00
2023-01-07T22:02:34.698Z,1.00
2023-01-07T22:05:01.516Z,1.00
2023-01-07T22:07:28.390Z,1.00
2023-01-07T22:09:55.311Z,1.00
2023-01-07T22:12:23.324Z,1.00
2023-01-07T22:14:50.124Z,1.00
2023-01-07T22:17:16.833Z,1.00
2023-01-07T22:19:43.544Z,1.00
2023-01-07T22:22:10.181Z,1.00
2023-01-07T22:24:36.805Z,1.00
2023-01-07T22:27:03.469Z,1.00
2023-01-07T22:29:32.081Z,1.00
2023-01-07T22:31:58.975Z,1.00
2023-01-07T22:34:25.680Z,1.00
2023-01-07T22:36:56.811Z,1.00
2023-01-07T22:39:28.736Z,1.00
2023-01-07T22:41:57.108Z,1.00
2023-01-07T22:44:26.861Z,1.00
2023-01-07T22:46:53.819Z,1.00
2023-01-07T22:49:20.626Z,1.00
2023-01-07T22:51:47.883Z,1.00
2023-01-07T22:54:14.612Z,1.00
2023-01-07T22:56:41.557Z,1.00
2023-01-07T22:59:08.152Z,1.00
2023-01-07T23:01:34.885Z,1.00
2023-01-07T23:04:01.569Z,1.00
2023-01-07T23:06:28.270Z,1.00
2023-01-07T23:08:54.858Z,1.00
2023-01-07T23:11:39.945Z,1.00
2023-01-07T23:14:06.639Z,1.00
2023-01-07T23:16:35.943Z,1.00
2023-01-07T23:19:02.612Z,1.00
2023-01-07T23:21:31.386Z,1.00
2023-01-07T23:23:58.730Z,1.00
2023-01-07T23:26:25.568Z,1.00
2023-01-07T23:28:52.324Z,1.00
2023-01-07T23:31:19.024Z,1.00
2023-01-07T23:33:45.674Z,1.00
2023-01-07T23:36:12.292Z,1.00
2023-01-07T23:38:39.129Z,1.00
2023-01-07T23:41:07.332Z,1.00
2023-01-07T23:43:34.332Z,1.00
2023-01-07T23:46:02.958Z,1.00
2023-01-07T23:48:30.653Z,1.00
2023-01-07T23:50:57.553Z,1.00
2023-01-07T23:53:24.379Z,1.00
2023-01-07T23:55:55.481Z,1.00
2023-01-07T23:58:22.983Z,1.00
